createdAt,value
2022-10-11T00:01:33.975Z,2.90
2022-10-11T00:04:02.476Z,3.90
2022-10-11T00:06:30.859Z,2.97
2022-10-11T00:08:59.141Z,2.73
2022-10-11T00:11:28.825Z,2.77
2022-10-11T00:13:57.009Z,2.60
2022-10-11T00:16:25.205Z,3.20
2022-10-11T00:18:53.496Z,2.67
2022-10-11T00:21:22.770Z,2.93
2022-10-11T00:23:50.997Z,2.10
2022-10-11T00:26:19.398Z,3.23
2022-10-11T00:28:48.946Z,3.87
2022-10-11T00:31:17.294Z,3.43
2022-10-11T00:33:51.344Z,3.13
2022-10-11T00:36:19.549Z,3.20
2022-10-11T00:38:48.108Z,4.30
2022-10-11T00:41:16.891Z,3.13
2022-10-11T00:43:45.521Z,2.80
2022-10-11T00:46:32.322Z,4.23
2022-10-11T00:49:07.265Z,3.30
2022-10-11T00:51:42.894Z,3.43
2022-10-11T00:54:13.396Z,3.67
2022-10-11T00:56:42.436Z,2.80
2022-10-11T00:59:15.605Z,3.50
2022-10-11T01:01:45.292Z,3.80
2022-10-11T01:04:13.562Z,3.60
2022-10-11T01:06:42.098Z,3.97
2022-10-11T01:09:11.766Z,3.47
2022-10-11T01:11:41.304Z,3.17
2022-10-11T01:14:23.014Z,2.73
2022-10-11T01:16:56.359Z,2.97
2022-10-11T01:19:36.227Z,3.03
2022-10-11T01:22:11.527Z,3.33
2022-10-11T01:24:50.670Z,3.80
2022-10-11T01:27:28.954Z,3.70
2022-10-11T01:30:03.681Z,3.50
2022-10-11T01:32:36.366Z,2.57
2022-10-11T01:35:06.771Z,2.63
2022-10-11T01:37:36.757Z,2.90
2022-10-11T01:40:07.354Z,2.53
2022-10-11T01:42:37.073Z,2.70
2022-10-11T01:45:08.417Z,2.50
2022-10-11T01:47:39.061Z,2.93
2022-10-11T01:50:09.061Z,4.30
2022-10-11T01:52:43.232Z,2.23
2022-10-11T01:55:18.721Z,3.20
2022-10-11T01:57:59.419Z,2.20
2022-10-11T02:00:29.525Z,2.40
2022-10-11T02:03:06.973Z,2.10
2022-10-11T02:05:39.705Z,2.60
2022-10-11T02:08:10.597Z,2.33
2022-10-11T02:10:41.569Z,3.10
2022-10-11T02:13:13.344Z,2.80
2022-10-11T02:15:42.309Z,1.97
2022-10-11T02:18:14.821Z,2.07
2022-10-11T02:20:44.197Z,2.00
2022-10-11T02:23:13.798Z,2.37
2022-10-11T02:25:42.359Z,2.07
2022-10-11T02:28:11.244Z,3.00
2022-10-11T02:30:40.671Z,2.30
2022-10-11T02:33:10.563Z,2.73
2022-10-11T02:35:43.163Z,2.23
2022-10-11T02:38:15.751Z,2.10
2022-10-11T02:40:46.922Z,2.70
2022-10-11T02:43:17.617Z,2.47
2022-10-11T02:45:49.648Z,2.17
2022-10-11T02:48:18.660Z,2.40
2022-10-11T02:50:49.034Z,2.40
2022-10-11T02:53:17.307Z,4.63
2022-10-11T02:55:45.479Z,2.10
2022-10-11T02:58:13.772Z,1.90
2022-10-11T03:00:41.996Z,3.67
2022-10-11T03:03:10.469Z,2.90
2022-10-11T03:05:40.714Z,2.30
2022-10-11T03:08:11.250Z,2.10
2022-10-11T03:10:40.014Z,2.60
2022-10-11T03:13:08.456Z,2.07
2022-10-11T03:15:36.727Z,3.13
2022-10-11T03:18:05.264Z,3.47
2022-10-11T03:20:33.464Z,3.07
2022-10-11T03:23:01.790Z,2.33
2022-10-11T03:25:31.313Z,1.90
2022-10-11T03:27:59.572Z,2.63
2022-10-11T03:30:27.741Z,2.10
2022-10-11T03:32:55.978Z,2.63
2022-10-11T03:35:24.299Z,1.87
2022-10-11T03:37:52.501Z,2.80
2022-10-11T03:40:20.743Z,2.13
2022-10-11T03:42:50.248Z,2.17
2022-10-11T03:45:18.557Z,2.30
2022-10-11T03:47:46.762Z,2.43
2022-10-11T03:50:15.093Z,2.67
2022-10-11T03:52:43.293Z,2.30
2022-10-11T03:55:11.465Z,2.50
2022-10-11T03:57:39.681Z,2.20
2022-10-11T04:00:10.154Z,2.20
2022-10-11T04:02:39.421Z,2.50
2022-10-11T04:05:08.104Z,3.27
2022-10-11T04:07:36.365Z,2.47
2022-10-11T04:10:04.645Z,1.77
2022-10-11T04:12:32.819Z,2.47
2022-10-11T04:15:01.093Z,1.80
2022-10-11T04:17:30.654Z,2.00
2022-10-11T04:19:58.870Z,3.03
2022-10-11T04:22:27.279Z,2.00
2022-10-11T04:24:55.662Z,2.43
2022-10-11T04:27:24.247Z,2.53
2022-10-11T04:29:52.790Z,2.10
2022-10-11T04:32:21.108Z,2.90
2022-10-11T04:34:51.943Z,2.40
2022-10-11T04:37:20.289Z,2.60
2022-10-11T04:39:49.608Z,2.60
2022-10-11T04:42:18.071Z,2.33
2022-10-11T04:44:46.282Z,2.80
2022-10-11T04:47:14.721Z,2.70
2022-10-11T04:49:42.931Z,2.30
2022-10-11T04:52:14.575Z,2.27
2022-10-11T04:54:42.792Z,2.53
2022-10-11T04:57:10.981Z,2.90
2022-10-11T04:59:39.307Z,2.73
2022-10-11T05:02:07.543Z,3.90
2022-10-11T05:04:35.771Z,2.07
2022-10-11T05:07:04.035Z,2.57
2022-10-11T05:09:33.606Z,3.10
2022-10-11T05:12:01.795Z,2.33
2022-10-11T05:14:30.014Z,2.60
2022-10-11T05:16:58.486Z,2.13
2022-10-11T05:19:26.672Z,2.60
2022-10-11T05:21:54.916Z,2.40
2022-10-11T05:24:23.123Z,2.30
2022-10-11T05:26:52.696Z,2.50
2022-10-11T05:29:20.884Z,2.70
2022-10-11T05:31:49.033Z,2.90
2022-10-11T05:34:17.308Z,3.03
2022-10-11T05:36:45.457Z,3.93
2022-10-11T05:39:13.678Z,3.60
2022-10-11T05:41:41.825Z,2.77
2022-10-11T05:44:11.409Z,4.30
2022-10-11T05:46:40.514Z,3.20
2022-10-11T05:49:08.820Z,3.47
2022-10-11T05:51:37.021Z,3.20
2022-10-11T05:54:05.249Z,2.90
2022-10-11T05:56:33.415Z,3.60
2022-10-11T05:59:02.665Z,3.13
2022-10-11T06:01:32.399Z,3.07
2022-10-11T06:04:00.873Z,3.10
2022-10-11T06:06:29.077Z,2.80
2022-10-11T06:08:57.275Z,2.53
2022-10-11T06:11:27.288Z,3.27
2022-10-11T06:13:56.729Z,3.40
2022-10-11T06:16:24.921Z,4.03
2022-10-11T06:18:55.743Z,2.67
2022-10-11T06:21:24.030Z,2.77
2022-10-11T06:23:56.838Z,3.03
2022-10-11T06:26:26.663Z,3.83
2022-10-11T06:28:55.213Z,3.33
2022-10-11T06:31:23.605Z,4.90
2022-10-11T06:33:51.933Z,3.27
2022-10-11T06:36:21.465Z,3.13
2022-10-11T06:38:53.404Z,3.47
2022-10-11T06:41:23.909Z,4.20
2022-10-11T06:43:52.283Z,3.03
2022-10-11T06:46:21.329Z,3.80
2022-10-11T06:48:51.165Z,4.07
2022-10-11T06:51:20.358Z,4.27
2022-10-11T06:53:51.944Z,5.00
2022-10-11T06:56:20.571Z,5.20
2022-10-11T06:58:50.947Z,5.80
2022-10-11T07:01:21.347Z,5.90
2022-10-11T07:03:50.106Z,5.07
2022-10-11T07:06:19.325Z,5.63
2022-10-11T07:08:47.749Z,5.00
2022-10-11T07:11:18.125Z,6.10
2022-10-11T07:13:50.434Z,5.87
2022-10-11T07:16:19.142Z,5.70
2022-10-11T07:18:47.629Z,5.60
2022-10-11T07:21:16.694Z,6.13
2022-10-11T07:23:45.933Z,6.47
2022-10-11T07:26:14.492Z,6.77
2022-10-11T07:28:44.702Z,7.30
2022-10-11T07:31:14.383Z,6.87
2022-10-11T07:33:42.831Z,6.00
2022-10-11T07:36:11.988Z,6.10
2022-10-11T07:38:46.669Z,6.20
2022-10-11T07:41:22.153Z,6.20
2022-10-11T07:43:52.072Z,5.57
2022-10-11T07:46:20.379Z,6.03
2022-10-11T07:48:50.134Z,6.63
2022-10-11T07:51:19.838Z,6.27
2022-10-11T07:53:49.526Z,7.33
2022-10-11T07:56:19.524Z,6.13
2022-10-11T07:58:52.389Z,6.90
2022-10-11T08:01:21.209Z,7.70
2022-10-11T08:03:49.826Z,6.23
2022-10-11T08:06:19.498Z,9.07
2022-10-11T08:08:47.716Z,6.87
2022-10-11T08:11:21.497Z,6.67
2022-10-11T08:13:49.908Z,8.17
2022-10-11T08:16:19.538Z,8.70
2022-10-11T08:18:47.826Z,8.33
2022-10-11T08:21:17.181Z,8.73
2022-10-11T08:23:45.374Z,7.10
2022-10-11T08:26:15.821Z,7.10
2022-10-11T08:28:44.112Z,6.90
2022-10-11T08:31:14.003Z,6.23
2022-10-11T08:33:45.001Z,6.40
2022-10-11T08:36:13.635Z,5.53
2022-10-11T08:38:42.201Z,7.50
2022-10-11T08:41:25.741Z,9.77
2022-10-11T08:43:57.400Z,5.77
2022-10-11T08:46:27.351Z,6.90
2022-10-11T08:48:59.270Z,6.40
2022-10-11T08:51:30.619Z,6.83
2022-10-11T08:54:04.780Z,6.73
2022-10-11T08:56:37.646Z,5.83
2022-10-11T08:59:08.541Z,4.67
2022-10-11T09:01:37.476Z,5.67
2022-10-11T09:04:07.078Z,3.80
2022-10-11T09:06:41.716Z,4.27
2022-10-11T09:09:20.609Z,3.60
2022-10-11T09:11:54.145Z,5.13
2022-10-11T09:14:34.588Z,4.53
2022-10-11T09:17:08.793Z,4.03
2022-10-11T09:19:47.558Z,3.77
2022-10-11T09:22:17.745Z,3.63
2022-10-11T09:24:57.693Z,2.73
2022-10-11T09:27:43.684Z,2.73
2022-10-11T09:30:18.367Z,2.40
2022-10-11T09:32:49.021Z,2.07
2022-10-11T09:35:19.602Z,2.70
2022-10-11T09:37:51.642Z,2.30
2022-10-11T09:40:23.822Z,2.73
2022-10-11T09:42:51.993Z,2.87
2022-10-11T09:45:22.417Z,1.73
2022-10-11T09:47:51.445Z,2.33
2022-10-11T09:50:22.716Z,4.27
2022-10-11T09:52:51.663Z,4.17
2022-10-11T09:55:33.371Z,3.00
2022-10-11T09:58:01.570Z,2.30
2022-10-11T10:00:33.442Z,2.23
2022-10-11T10:03:02.579Z,3.33
2022-10-11T10:05:32.920Z,2.57
2022-10-11T10:08:04.864Z,2.33
2022-10-11T10:10:35.900Z,2.40
2022-10-11T10:13:05.970Z,2.60
2022-10-11T10:15:35.772Z,2.00
2022-10-11T10:18:05.875Z,2.03
2022-10-11T10:20:36.607Z,2.33
2022-10-11T10:23:09.647Z,2.73
2022-10-11T10:25:43.342Z,2.60
2022-10-11T10:28:19.557Z,2.60
2022-10-11T10:30:55.189Z,1.97
2022-10-11T10:33:24.662Z,2.37
2022-10-11T10:35:55.730Z,1.23
2022-10-11T10:38:26.887Z,1.97
2022-10-11T10:40:56.679Z,2.23
2022-10-11T10:43:26.576Z,2.13
2022-10-11T10:46:03.450Z,2.23
2022-10-11T10:49:11.695Z,2.20
2022-10-11T10:51:32.812Z,2.10
2022-10-11T10:54:02.914Z,1.57
2022-10-11T10:56:34.434Z,2.60
2022-10-11T10:59:07.418Z,1.40
2022-10-11T11:01:38.801Z,2.80
2022-10-11T11:04:11.851Z,1.97
2022-10-11T11:06:47.192Z,1.67
2022-10-11T11:09:26.577Z,1.87
2022-10-11T11:11:59.725Z,2.03
2022-10-11T11:14:35.329Z,1.53
2022-10-11T11:17:07.643Z,1.67
2022-10-11T11:19:41.183Z,3.37
2022-10-11T11:22:17.022Z,1.30
2022-10-11T11:24:48.458Z,2.40
2022-10-11T11:27:24.106Z,2.40
2022-10-11T11:29:56.184Z,2.40
2022-10-11T11:32:30.713Z,2.03
2022-10-11T11:35:02.081Z,2.30
2022-10-11T11:37:33.578Z,2.20
2022-10-11T11:40:03.312Z,2.57
2022-10-11T11:42:35.840Z,2.43
2022-10-11T11:45:07.066Z,2.00
2022-10-11T11:47:37.478Z,3.27
2022-10-11T11:50:07.662Z,2.07
2022-10-11T11:52:38.685Z,3.20
2022-10-11T11:55:10.341Z,2.33
2022-10-11T11:57:49.427Z,2.70
2022-10-11T12:00:19.485Z,2.57
2022-10-11T12:02:50.772Z,2.40
2022-10-11T12:05:20.402Z,3.87
2022-10-11T12:07:51.917Z,1.80
2022-10-11T12:10:28.044Z,1.53
2022-10-11T12:13:18.141Z,2.20
2022-10-11T12:16:00.724Z,2.20
2022-10-11T12:18:30.667Z,2.43
2022-10-11T12:21:06.895Z,2.20
2022-10-11T12:23:44.333Z,3.53
2022-10-11T12:26:32.504Z,2.40
2022-10-11T12:29:05.486Z,3.10
2022-10-11T12:31:34.441Z,2.30
2022-10-11T12:34:33.270Z,2.80
2022-10-11T12:37:05.956Z,2.17
2022-10-11T12:39:52.689Z,1.90
2022-10-11T12:42:24.254Z,2.27
2022-10-11T12:45:10.905Z,2.03
2022-10-11T12:47:40.897Z,2.80
2022-10-11T12:50:16.325Z,3.03
2022-10-11T12:52:51.605Z,2.50
2022-10-11T12:55:36.838Z,1.93
2022-10-11T12:58:25.246Z,3.00
2022-10-11T13:01:08.316Z,2.90
2022-10-11T13:03:38.422Z,2.60
2022-10-11T13:06:12.722Z,2.20
2022-10-11T13:08:43.134Z,2.40
2022-10-11T13:11:13.202Z,2.40
2022-10-11T13:13:43.441Z,2.60
2022-10-11T13:16:15.616Z,1.70
2022-10-11T13:18:44.913Z,2.20
2022-10-11T13:21:23.126Z,2.50
2022-10-11T13:23:57.732Z,1.80
2022-10-11T13:26:26.183Z,2.83
2022-10-11T13:28:55.737Z,2.10
2022-10-11T13:31:25.309Z,2.80
2022-10-11T13:33:55.872Z,2.47
2022-10-11T13:36:26.676Z,2.73
2022-10-11T13:38:55.971Z,2.80
2022-10-11T13:41:27.204Z,2.93
2022-10-11T13:43:58.058Z,2.80
2022-10-11T13:46:27.449Z,3.20
2022-10-11T13:49:00.627Z,3.20
2022-10-11T13:51:30.111Z,2.83
2022-10-11T13:53:59.209Z,3.67
2022-10-11T13:56:29.654Z,2.57
2022-10-11T13:58:59.533Z,2.83
2022-10-11T14:01:28.966Z,3.37
2022-10-11T14:04:00.561Z,2.87
2022-10-11T14:06:40.273Z,3.23
2022-10-11T14:09:15.845Z,3.57
2022-10-11T14:11:44.600Z,3.50
2022-10-11T14:14:41.020Z,3.43
2022-10-11T14:17:13.919Z,2.83
2022-10-11T14:19:42.602Z,3.20
2022-10-11T14:22:14.920Z,4.17
2022-10-11T14:24:43.453Z,3.53
2022-10-11T14:27:16.386Z,2.63
2022-10-11T14:30:06.107Z,3.93
2022-10-11T14:32:36.345Z,3.67
2022-10-11T14:35:04.749Z,2.63
2022-10-11T14:37:33.033Z,3.57
2022-10-11T14:40:01.678Z,4.23
2022-10-11T14:42:29.881Z,4.30
2022-10-11T14:44:59.389Z,3.83
2022-10-11T14:47:27.596Z,4.33
2022-10-11T14:49:55.762Z,3.70
2022-10-11T14:52:23.946Z,2.43
2022-10-11T14:54:52.178Z,3.30
2022-10-11T14:57:20.453Z,2.53
2022-10-11T14:59:48.657Z,3.70
2022-10-11T15:02:20.533Z,5.10
2022-10-11T15:04:48.844Z,3.87
2022-10-11T15:07:17.041Z,4.00
2022-10-11T15:09:45.280Z,4.70
2022-10-11T15:12:13.714Z,4.33
2022-10-11T15:14:41.917Z,4.50
2022-10-11T15:17:12.498Z,4.00
2022-10-11T15:19:42.108Z,3.70
2022-10-11T15:22:10.329Z,3.40
2022-10-11T15:24:38.670Z,4.40
2022-10-11T15:27:07.184Z,4.23
2022-10-11T15:29:36.171Z,4.20
2022-10-11T15:32:04.405Z,4.03
2022-10-11T15:34:32.718Z,4.53
2022-10-11T15:37:02.258Z,4.17
2022-10-11T15:39:32.596Z,4.53
2022-10-11T15:42:03.291Z,4.43
2022-10-11T15:44:31.494Z,4.53
2022-10-11T15:46:59.722Z,4.13
2022-10-11T15:49:27.933Z,5.10
2022-10-11T15:51:56.114Z,3.90
2022-10-11T15:54:25.665Z,4.77
2022-10-11T15:56:53.860Z,4.53
2022-10-11T15:59:22.086Z,4.07
2022-10-11T16:01:50.333Z,5.13
2022-10-11T16:04:18.625Z,4.47
2022-10-11T16:06:47.014Z,5.30
2022-10-11T16:09:15.346Z,5.23
2022-10-11T16:11:44.993Z,4.00
2022-10-11T16:14:13.448Z,4.70
2022-10-11T16:16:41.642Z,4.70
2022-10-11T16:19:09.923Z,4.20
2022-10-11T16:21:38.151Z,4.30
2022-10-11T16:24:06.607Z,4.20
2022-10-11T16:26:34.865Z,3.77
2022-10-11T16:29:04.452Z,4.83
2022-10-11T16:31:32.657Z,5.03
2022-10-11T16:34:00.852Z,5.23
2022-10-11T16:36:40.520Z,3.50
2022-10-11T16:39:09.789Z,3.70
2022-10-11T16:41:38.509Z,6.20
2022-10-11T16:44:08.142Z,5.47
2022-10-11T16:46:36.363Z,4.37
2022-10-11T16:49:04.830Z,4.77
2022-10-11T16:51:33.346Z,5.00
2022-10-11T16:54:01.622Z,4.83
2022-10-11T16:56:30.218Z,3.50
2022-10-11T16:58:58.670Z,5.47
2022-10-11T17:01:28.320Z,5.00
2022-10-11T17:03:56.958Z,5.70
2022-10-11T17:06:25.879Z,4.07
2022-10-11T17:08:54.156Z,5.60
2022-10-11T17:11:22.561Z,4.93
2022-10-11T17:13:51.532Z,5.77
2022-10-11T17:16:20.014Z,6.00
2022-10-11T17:18:49.973Z,6.23
2022-10-11T17:21:18.790Z,5.47
2022-10-11T17:23:48.391Z,5.60
2022-10-11T17:26:18.145Z,6.03
2022-10-11T17:28:47.329Z,8.90
2022-10-11T17:31:15.687Z,7.40
2022-10-11T17:33:43.968Z,9.43
2022-10-11T17:36:17.681Z,9.73
2022-10-11T17:38:45.954Z,9.43
2022-10-11T17:41:14.266Z,10.90
2022-10-11T17:43:42.786Z,8.03
2022-10-11T17:46:12.654Z,6.07
2022-10-11T17:48:40.854Z,8.80
2022-10-11T17:51:09.693Z,7.40
2022-10-11T17:53:39.330Z,8.20
2022-10-11T17:56:08.100Z,6.80
2022-10-11T17:58:36.393Z,6.83
2022-10-11T18:01:05.680Z,7.10
2022-10-11T18:03:34.423Z,7.50
2022-10-11T18:06:04.411Z,7.20
2022-10-11T18:08:35.347Z,8.43
2022-10-11T18:11:12.681Z,6.87
2022-10-11T18:13:45.712Z,7.00
2022-10-11T18:16:14.314Z,9.20
2022-10-11T18:18:42.601Z,6.80
2022-10-11T18:21:11.194Z,7.53
2022-10-11T18:23:39.762Z,8.07
2022-10-11T18:26:13.675Z,8.13
2022-10-11T18:28:42.183Z,7.23
2022-10-11T18:31:13.312Z,8.13
2022-10-11T18:33:42.683Z,7.70
2022-10-11T18:36:13.532Z,7.50
2022-10-11T18:38:46.232Z,7.37
2022-10-11T18:41:16.780Z,8.67
2022-10-11T18:43:45.250Z,8.17
2022-10-11T18:46:14.382Z,8.57
2022-10-11T18:48:42.826Z,9.10
2022-10-11T18:51:11.805Z,8.10
2022-10-11T18:53:40.094Z,8.33
2022-10-11T18:56:10.335Z,7.80
2022-10-11T18:58:40.582Z,8.50
2022-10-11T19:01:09.565Z,9.90
2022-10-11T19:03:38.257Z,9.87
2022-10-11T19:06:07.606Z,9.10
2022-10-11T19:08:36.537Z,8.10
2022-10-11T19:11:08.140Z,10.30
2022-10-11T19:13:36.787Z,9.60
2022-10-11T19:16:08.467Z,10.20
2022-10-11T19:18:40.528Z,12.20
2022-10-11T19:21:14.220Z,11.60
2022-10-11T19:23:43.225Z,9.23
2022-10-11T19:26:14.711Z,8.77
2022-10-11T19:28:43.247Z,10.13
2022-10-11T19:31:16.198Z,8.73
2022-10-11T19:33:45.302Z,9.20
2022-10-11T19:36:14.223Z,9.30
2022-10-11T19:38:45.284Z,8.83
2022-10-11T19:41:14.011Z,8.57
2022-10-11T19:43:42.257Z,8.03
2022-10-11T19:46:13.144Z,7.07
2022-10-11T19:48:43.977Z,7.77
2022-10-11T19:51:14.208Z,7.37
2022-10-11T19:53:42.798Z,7.60
2022-10-11T19:56:12.002Z,7.43
2022-10-11T19:58:40.674Z,8.17
2022-10-11T20:01:10.729Z,7.40
2022-10-11T20:03:39.688Z,6.67
2022-10-11T20:06:09.742Z,8.17
2022-10-11T20:08:38.372Z,7.53
2022-10-11T20:11:07.354Z,8.30
2022-10-11T20:13:37.196Z,7.57
2022-10-11T20:16:06.801Z,7.83
2022-10-11T20:18:35.099Z,8.33
2022-10-11T20:21:04.297Z,7.43
2022-10-11T20:23:35.442Z,7.03
2022-10-11T20:26:04.381Z,7.90
2022-10-11T20:28:34.962Z,7.70
2022-10-11T20:31:04.178Z,6.97
2022-10-11T20:33:34.505Z,8.87
2022-10-11T20:36:03.506Z,7.90
2022-10-11T20:38:32.260Z,7.17
2022-10-11T20:41:01.925Z,7.20
2022-10-11T20:43:30.133Z,8.63
2022-10-11T20:46:02.368Z,7.20
2022-10-11T20:48:31.047Z,10.37
2022-10-11T20:50:59.252Z,11.10
2022-10-11T20:53:27.773Z,10.60
2022-10-11T20:55:56.226Z,10.33
2022-10-11T20:58:25.826Z,9.50
2022-10-11T21:00:54.027Z,7.97
2022-10-11T21:03:22.210Z,9.40
2022-10-11T21:05:58.873Z,10.13
2022-10-11T21:08:27.125Z,9.93
2022-10-11T21:10:56.080Z,9.70
2022-10-11T21:13:25.598Z,10.43
2022-10-11T21:15:53.781Z,9.00
2022-10-11T21:18:22.050Z,10.37
2022-10-11T21:20:50.269Z,10.30
2022-10-11T21:23:19.830Z,8.67
2022-10-11T21:25:48.002Z,9.37
2022-10-11T21:28:16.273Z,9.77
2022-10-11T21:30:46.293Z,10.17
2022-10-11T21:33:14.460Z,10.37
2022-10-11T21:35:43.041Z,8.40
2022-10-11T21:38:12.496Z,9.00
2022-10-11T21:40:41.070Z,8.80
2022-10-11T21:43:09.476Z,7.90
2022-10-11T21:45:38.313Z,8.20
2022-10-11T21:48:07.961Z,7.83
2022-10-11T21:50:36.187Z,8.30
2022-10-11T21:53:04.376Z,8.00
2022-10-11T21:55:32.545Z,7.00
2022-10-11T21:58:00.765Z,7.37
2022-10-11T22:00:29.173Z,7.93
2022-10-11T22:02:57.556Z,7.63
2022-10-11T22:05:27.111Z,7.70
2022-10-11T22:07:55.333Z,7.50
2022-10-11T22:10:23.691Z,6.83
2022-10-11T22:12:51.875Z,7.77
2022-10-11T22:15:20.051Z,7.43
2022-10-11T22:17:48.237Z,6.77
2022-10-11T22:20:16.436Z,7.17
2022-10-11T22:22:46.036Z,7.30
2022-10-11T22:25:14.634Z,6.60
2022-10-11T22:27:42.824Z,6.77
2022-10-11T22:30:11.233Z,7.50
2022-10-11T22:32:39.473Z,5.47
2022-10-11T22:35:07.937Z,6.70
2022-10-11T22:37:36.625Z,5.70
2022-10-11T22:40:06.876Z,6.63
2022-10-11T22:42:35.067Z,6.60
2022-10-11T22:45:03.446Z,6.47
2022-10-11T22:47:31.671Z,8.23
2022-10-11T22:49:59.867Z,7.23
2022-10-11T22:52:28.524Z,7.00
2022-10-11T22:54:56.770Z,6.37
2022-10-11T22:57:26.349Z,6.77
2022-10-11T22:59:54.549Z,6.40
2022-10-11T23:02:22.718Z,6.27
2022-10-11T23:04:52.153Z,6.63
2022-10-11T23:07:20.305Z,6.80
2022-10-11T23:09:48.486Z,7.30
2022-10-11T23:12:16.678Z,6.93
2022-10-11T23:14:46.265Z,6.63
2022-10-11T23:17:14.477Z,6.03
2022-10-11T23:19:42.821Z,6.43
2022-10-11T23:22:11.022Z,6.83
2022-10-11T23:24:39.227Z,5.63
2022-10-11T23:27:07.478Z,6.30
2022-10-11T23:29:35.739Z,5.87
2022-10-11T23:32:05.427Z,6.90
2022-10-11T23:34:33.602Z,6.10
2022-10-11T23:37:01.884Z,6.10
2022-10-11T23:39:30.401Z,6.60
2022-10-11T23:41:58.607Z,7.00
2022-10-11T23:44:26.752Z,5.90
2022-10-11T23:46:54.917Z,6.67
2022-10-11T23:49:24.610Z,6.00
2022-10-11T23:51:52.836Z,5.60
2022-10-11T23:54:21.070Z,5.47
2022-10-11T23:56:49.234Z,6.47
2022-10-11T23:59:17.450Z,5.73
